createdAt,value
2019-05-30T00:02:05.159Z,101527.90
2019-05-30T00:04:34.767Z,101530.81
2019-05-30T00:07:04.777Z,101527.02
2019-05-30T00:09:34.429Z,101526.23
2019-05-30T00:12:05.101Z,101532.41
2019-05-30T00:14:34.740Z,101523.70
2019-05-30T00:17:05.129Z,101530.62
2019-05-30T00:19:34.714Z,101534.19
2019-05-30T00:22:05.558Z,101521.98
2019-05-30T00:24:35.238Z,101524.20
2019-05-30T00:27:04.806Z,101522.46
2019-05-30T00:29:34.361Z,101522.94
2019-05-30T00:32:04.672Z,101528.53
2019-05-30T00:34:34.552Z,101527.69
2019-05-30T00:37:04.206Z,101526.78
2019-05-30T00:39:33.793Z,101528.48
2019-05-30T00:42:04.228Z,101529.36
2019-05-30T00:44:33.765Z,101530.31
2019-05-30T00:47:04.479Z,101531.66
2019-05-30T00:49:34.058Z,101528.84
2019-05-30T00:52:05.107Z,101524.02
2019-05-30T00:54:34.735Z,101523.50
2019-05-30T00:57:04.894Z,101521.67
2019-05-30T00:59:34.532Z,101527.85
2019-05-30T01:02:04.918Z,101524.72
2019-05-30T01:04:34.473Z,101528.94
2019-05-30T01:07:05.225Z,101523.55
2019-05-30T01:09:34.782Z,101519.15
2019-05-30T01:12:05.284Z,101517.36
2019-05-30T01:14:34.844Z,101519.54
2019-05-30T01:17:05.323Z,101515.14
2019-05-30T01:19:34.952Z,101512.95
2019-05-30T01:22:05.493Z,101512.58
2019-05-30T01:24:35.127Z,101507.48
2019-05-30T01:27:05.545Z,101505.31
2019-05-30T01:29:35.064Z,101500.71
2019-05-30T01:32:06.312Z,101495.84
2019-05-30T01:34:35.812Z,101497.27
2019-05-30T01:37:05.824Z,101502.50
2019-05-30T01:39:35.606Z,101502.46
2019-05-30T01:42:05.928Z,101506.54
2019-05-30T01:44:35.420Z,101509.67
2019-05-30T01:47:06.267Z,101507.48
2019-05-30T01:49:35.923Z,101507.84
2019-05-30T01:52:06.604Z,101510.38
2019-05-30T01:54:36.128Z,101508.52
2019-05-30T01:57:06.781Z,101505.91
2019-05-30T01:59:36.326Z,101506.52
2019-05-30T02:02:07.235Z,101506.77
2019-05-30T02:04:36.865Z,101504.50
2019-05-30T02:07:07.288Z,101501.35
2019-05-30T02:09:36.950Z,101496.91
2019-05-30T02:12:07.625Z,101498.30
2019-05-30T02:14:37.229Z,101503.09
2019-05-30T02:17:07.803Z,101497.09
2019-05-30T02:19:37.341Z,101494.05
2019-05-30T02:22:07.945Z,101489.70
2019-05-30T02:24:39.139Z,101498.89
2019-05-30T02:27:08.662Z,101499.52
2019-05-30T02:29:38.221Z,101504.55
2019-05-30T02:32:09.222Z,101506.30
2019-05-30T02:34:39.137Z,101501.59
2019-05-30T02:37:10.777Z,101498.06
2019-05-30T02:39:40.133Z,101501.98
2019-05-30T02:42:11.222Z,101497.77
2019-05-30T02:44:40.998Z,101501.82
2019-05-30T02:47:11.562Z,101504.86
2019-05-30T02:49:41.259Z,101501.68
2019-05-30T02:52:11.415Z,101507.73
2019-05-30T02:54:42.017Z,101504.78
2019-05-30T02:57:12.560Z,101510.84
2019-05-30T02:59:42.194Z,101502.69
2019-05-30T03:02:16.431Z,101508.03
2019-05-30T03:04:43.013Z,101507.00
2019-05-30T03:07:13.049Z,101507.83
2019-05-30T03:09:42.814Z,101510.09
2019-05-30T03:12:13.425Z,101514.37
2019-05-30T03:14:43.177Z,101514.17
2019-05-30T03:17:14.716Z,101515.19
2019-05-30T03:19:44.093Z,101518.28
2019-05-30T03:22:14.098Z,101514.75
2019-05-30T03:24:43.758Z,101516.27
2019-05-30T03:27:14.171Z,101514.56
2019-05-30T03:29:43.841Z,101520.67
2019-05-30T03:32:59.485Z,101517.23
2019-05-30T03:34:44.951Z,101524.95
2019-05-30T03:37:26.963Z,101528.03
2019-05-30T03:39:46.018Z,101528.81
2019-05-30T03:42:16.099Z,101529.39
2019-05-30T03:44:45.909Z,101531.70
2019-05-30T03:47:18.522Z,101539.53
2019-05-30T03:49:50.157Z,101538.70
2019-05-30T03:52:20.482Z,101543.36
2019-05-30T03:54:52.214Z,101542.06
2019-05-30T03:57:32.737Z,101545.63
2019-05-30T04:00:14.480Z,101551.52
2019-05-30T04:02:59.066Z,101558.69
2019-05-30T04:05:35.570Z,101561.18
2019-05-30T04:08:09.970Z,101565.15
2019-05-30T04:10:43.138Z,101565.98
2019-05-30T04:13:19.193Z,101554.64
2019-05-30T04:15:48.539Z,101539.61
2019-05-30T04:18:19.594Z,101544.08
2019-05-30T04:20:49.202Z,101547.06
2019-05-30T04:23:19.502Z,101549.47
2019-05-30T04:25:49.219Z,101551.64
2019-05-30T04:28:18.959Z,101552.57
2019-05-30T04:30:48.570Z,101554.36
2019-05-30T04:33:31.709Z,101555.66
2019-05-30T04:35:49.378Z,101551.31
2019-05-30T04:38:19.499Z,101551.56
2019-05-30T04:40:49.180Z,101555.78
2019-05-30T04:43:20.286Z,101558.64
2019-05-30T04:45:49.984Z,101563.91
2019-05-30T04:48:21.301Z,101557.77
2019-05-30T04:50:50.767Z,101554.57
2019-05-30T04:53:20.991Z,101550.34
2019-05-30T04:55:50.746Z,101554.26
2019-05-30T04:58:21.830Z,101549.72
2019-05-30T05:00:51.520Z,101554.56
2019-05-30T05:03:41.733Z,101557.83
2019-05-30T05:05:52.265Z,101564.94
2019-05-30T05:08:22.192Z,101565.54
2019-05-30T05:10:53.256Z,101572.95
2019-05-30T05:13:22.778Z,101569.94
2019-05-30T05:15:52.275Z,101570.81
2019-05-30T05:18:23.242Z,101584.05
2019-05-30T05:20:52.887Z,101577.16
2019-05-30T05:23:23.425Z,101578.89
2019-05-30T05:26:00.855Z,101580.34
2019-05-30T05:28:24.452Z,101581.98
2019-05-30T05:30:54.009Z,101581.26
2019-05-30T05:33:24.708Z,101580.09
2019-05-30T05:35:54.415Z,101581.70
2019-05-30T05:38:24.448Z,101584.78
2019-05-30T05:40:54.094Z,101583.64
2019-05-30T05:43:24.473Z,101581.77
2019-05-30T05:45:54.028Z,101574.51
2019-05-30T05:48:24.684Z,101584.31
2019-05-30T05:50:54.300Z,101582.11
2019-05-30T05:53:24.947Z,101578.61
2019-05-30T05:55:54.641Z,101589.23
2019-05-30T05:58:26.139Z,101579.63
2019-05-30T06:00:55.529Z,101579.63
2019-05-30T06:03:25.120Z,101588.41
2019-05-30T06:05:55.069Z,101588.94
2019-05-30T06:08:25.822Z,101589.39
2019-05-30T06:10:55.414Z,101596.91
2019-05-30T06:13:24.927Z,101599.09
2019-05-30T06:15:54.424Z,101593.37
2019-05-30T06:18:24.236Z,101596.93
2019-05-30T06:20:53.813Z,101600.02
2019-05-30T06:23:23.699Z,101598.62
2019-05-30T06:25:53.322Z,101606.60
2019-05-30T06:28:24.053Z,101604.41
2019-05-30T06:30:53.743Z,101609.51
2019-05-30T06:33:24.995Z,101611.32
2019-05-30T06:35:54.614Z,101606.52
2019-05-30T06:38:25.203Z,101610.92
2019-05-30T06:40:54.876Z,101612.62
2019-05-30T06:43:24.506Z,101611.83
2019-05-30T06:45:53.941Z,101612.71
2019-05-30T06:48:24.644Z,101610.98
2019-05-30T06:50:54.216Z,101600.64
2019-05-30T06:53:25.045Z,101602.87
2019-05-30T06:55:54.600Z,101609.82
2019-05-30T06:58:41.735Z,101615.97
2019-05-30T07:00:55.324Z,101607.72
2019-05-30T07:03:26.253Z,101610.43
2019-05-30T07:05:56.465Z,101609.95
2019-05-30T07:08:26.766Z,101615.23
2019-05-30T07:10:56.395Z,101613.05
2019-05-30T07:13:27.128Z,101615.26
2019-05-30T07:15:56.786Z,101613.92
2019-05-30T07:18:27.437Z,101614.80
2019-05-30T07:20:57.367Z,101611.75
2019-05-30T07:23:27.865Z,101618.30
2019-05-30T07:25:57.383Z,101627.08
2019-05-30T07:28:27.901Z,101631.44
2019-05-30T07:30:57.466Z,101639.75
2019-05-30T07:33:28.031Z,101629.27
2019-05-30T07:35:57.529Z,101633.63
2019-05-30T07:38:27.338Z,101636.23
2019-05-30T07:40:57.802Z,101641.49
2019-05-30T07:43:28.663Z,101644.09
2019-05-30T07:45:58.808Z,101643.63
2019-05-30T07:48:28.380Z,101646.75
2019-05-30T07:50:57.939Z,101638.45
2019-05-30T07:53:28.478Z,101639.77
2019-05-30T07:55:59.265Z,101642.83
2019-05-30T07:58:29.076Z,101643.27
2019-05-30T08:00:58.606Z,101650.71
2019-05-30T08:03:28.402Z,101646.75
2019-05-30T08:05:58.001Z,101644.16
2019-05-30T08:08:28.140Z,101645.47
2019-05-30T08:11:08.823Z,101645.89
2019-05-30T08:13:29.079Z,101645.02
2019-05-30T08:15:58.568Z,101645.02
2019-05-30T08:18:28.068Z,101639.83
2019-05-30T08:20:57.546Z,101641.13
2019-05-30T08:23:28.038Z,101639.34
2019-05-30T08:25:57.609Z,101638.91
2019-05-30T08:28:28.649Z,101639.77
2019-05-30T08:30:58.278Z,101635.36
2019-05-30T08:33:27.841Z,101639.73
2019-05-30T08:35:57.380Z,101639.25
2019-05-30T08:38:26.887Z,101636.61
2019-05-30T08:40:56.384Z,101638.36
2019-05-30T08:43:25.895Z,101642.33
2019-05-30T08:45:55.408Z,101639.28
2019-05-30T08:48:25.044Z,101638.41
2019-05-30T08:50:54.610Z,101640.63
2019-05-30T08:53:24.129Z,101643.23
2019-05-30T08:55:53.617Z,101638.25
2019-05-30T08:58:23.270Z,101639.89
2019-05-30T09:00:53.577Z,101634.17
2019-05-30T09:03:23.087Z,101632.48
2019-05-30T09:06:02.995Z,101630.23
2019-05-30T09:08:24.001Z,101631.97
2019-05-30T09:10:53.510Z,101634.17
2019-05-30T09:13:23.079Z,101628.42
2019-05-30T09:15:52.579Z,101624.52
2019-05-30T09:18:22.282Z,101621.96
2019-05-30T09:20:51.792Z,101618.14
2019-05-30T09:23:21.365Z,101616.52
2019-05-30T09:25:50.867Z,101621.02
2019-05-30T09:28:20.362Z,101620.01
2019-05-30T09:30:49.837Z,101616.67
2019-05-30T09:33:19.446Z,101618.38
2019-05-30T09:35:49.121Z,101617.94
2019-05-30T09:38:18.704Z,101617.34
2019-05-30T09:40:49.540Z,101625.81
2019-05-30T09:43:19.168Z,101626.52
2019-05-30T09:45:48.682Z,101623.27
2019-05-30T09:48:18.237Z,101622.56
2019-05-30T09:50:48.805Z,101626.42
2019-05-30T09:53:18.445Z,101628.86
2019-05-30T09:55:48.328Z,101634.35
2019-05-30T09:58:17.957Z,101631.95
2019-05-30T10:00:48.641Z,101635.17
2019-05-30T10:03:18.790Z,101637.52
2019-05-30T10:05:48.650Z,101642.91
2019-05-30T10:08:18.247Z,101646.78
2019-05-30T10:10:48.174Z,101646.89
2019-05-30T10:13:18.905Z,101642.67
2019-05-30T10:15:48.620Z,101653.20
2019-05-30T10:18:18.116Z,101654.97
2019-05-30T10:20:48.188Z,101652.95
2019-05-30T10:23:19.031Z,101653.67
2019-05-30T10:25:49.546Z,101647.20
2019-05-30T10:28:19.088Z,101652.30
2019-05-30T10:30:53.563Z,101644.64
2019-05-30T10:33:20.535Z,101642.88
2019-05-30T10:35:51.490Z,101646.38
2019-05-30T10:38:21.338Z,101641.75
2019-05-30T10:40:52.179Z,101637.88
2019-05-30T10:43:21.857Z,101634.71
2019-05-30T10:45:53.286Z,101634.64
2019-05-30T10:48:22.896Z,101642.03
2019-05-30T10:50:52.426Z,101641.00
2019-05-30T10:53:21.984Z,101646.83
2019-05-30T10:55:53.028Z,101647.89
2019-05-30T10:58:22.787Z,101642.88
2019-05-30T11:00:58.120Z,101653.84
2019-05-30T11:03:28.745Z,101647.20
2019-05-30T11:06:14.811Z,101649.84
2019-05-30T11:08:46.208Z,101646.41
2019-05-30T11:11:16.341Z,101652.57
2019-05-30T11:13:46.881Z,101646.30
2019-05-30T11:16:16.428Z,101649.92
2019-05-30T11:18:47.503Z,101657.10
2019-05-30T11:21:17.390Z,101660.63
2019-05-30T11:23:47.917Z,101651.88
2019-05-30T11:26:18.188Z,101645.23
2019-05-30T11:28:48.564Z,101651.85
2019-05-30T11:31:18.089Z,101650.45
2019-05-30T11:33:48.780Z,101650.80
2019-05-30T11:36:18.338Z,101648.27
2019-05-30T11:38:49.036Z,101645.80
2019-05-30T11:41:18.578Z,101642.38
2019-05-30T11:43:49.334Z,101650.59
2019-05-30T11:46:18.943Z,101650.25
2019-05-30T11:48:49.524Z,101654.84
2019-05-30T11:51:19.069Z,101646.23
2019-05-30T11:53:49.721Z,101649.44
2019-05-30T11:56:19.234Z,101653.88
2019-05-30T11:58:49.803Z,101650.27
2019-05-30T12:01:19.344Z,101648.05
2019-05-30T12:03:48.867Z,101647.94
2019-05-30T12:06:18.408Z,101648.61
2019-05-30T12:08:48.045Z,101648.64
2019-05-30T12:11:17.562Z,101657.75
2019-05-30T12:13:47.110Z,101655.94
2019-05-30T12:16:16.625Z,101653.90
2019-05-30T12:18:46.208Z,101656.02
2019-05-30T12:21:15.682Z,101664.45
2019-05-30T12:23:45.210Z,101666.94
2019-05-30T12:26:14.739Z,101665.03
2019-05-30T12:28:44.198Z,101666.34
2019-05-30T12:31:13.736Z,101656.72
2019-05-30T12:33:43.324Z,101668.41
2019-05-30T12:36:12.842Z,101666.53
2019-05-30T12:38:42.356Z,101662.48
2019-05-30T12:41:11.855Z,101667.09
2019-05-30T12:43:41.370Z,101672.72
2019-05-30T12:46:10.879Z,101670.20
2019-05-30T12:48:40.408Z,101674.52
2019-05-30T12:51:09.923Z,101673.95
2019-05-30T12:53:39.412Z,101672.72
2019-05-30T12:56:08.935Z,101674.68
2019-05-30T12:58:38.496Z,101675.78
2019-05-30T13:01:08.132Z,101676.84
2019-05-30T13:03:37.718Z,101670.61
2019-05-30T13:06:07.582Z,101685.57
2019-05-30T13:08:37.124Z,101683.19
2019-05-30T13:11:06.695Z,101682.73
2019-05-30T13:13:36.207Z,101680.70
2019-05-30T13:16:08.736Z,101686.36
2019-05-30T13:18:37.065Z,101690.24
2019-05-30T13:21:06.817Z,101692.88
2019-05-30T13:23:36.396Z,101695.02
2019-05-30T13:26:06.054Z,101696.09
2019-05-30T13:28:35.527Z,101698.56
2019-05-30T13:31:06.967Z,101703.05
2019-05-30T13:33:38.527Z,101711.85
2019-05-30T13:36:07.853Z,101709.86
2019-05-30T13:38:37.390Z,101713.34
2019-05-30T13:41:07.776Z,101717.74
2019-05-30T13:43:37.474Z,101718.20
2019-05-30T13:46:06.992Z,101731.81
2019-05-30T13:48:36.562Z,101722.18
2019-05-30T13:51:07.087Z,101730.05
2019-05-30T13:53:36.749Z,101729.20
2019-05-30T13:56:07.698Z,101727.42
2019-05-30T13:58:37.297Z,101726.55
2019-05-30T14:01:11.520Z,101722.16
2019-05-30T14:03:38.116Z,101729.61
2019-05-30T14:06:08.335Z,101727.39
2019-05-30T14:08:41.681Z,101729.61
2019-05-30T14:11:09.144Z,101726.49
2019-05-30T14:13:38.656Z,101728.59
2019-05-30T14:16:09.040Z,101723.38
2019-05-30T14:18:38.579Z,101731.55
2019-05-30T14:21:09.272Z,101726.27
2019-05-30T14:23:38.849Z,101726.39
2019-05-30T14:26:09.384Z,101728.18
2019-05-30T14:28:39.086Z,101722.00
2019-05-30T14:31:08.994Z,101723.80
2019-05-30T14:33:38.491Z,101726.88
2019-05-30T14:36:11.420Z,101728.16
2019-05-30T14:38:39.215Z,101723.66
2019-05-30T14:41:08.971Z,101723.56
2019-05-30T14:43:38.527Z,101724.42
2019-05-30T14:46:08.252Z,101721.65
2019-05-30T14:48:37.813Z,101725.56
2019-05-30T14:51:07.290Z,101726.34
2019-05-30T14:53:36.806Z,101732.77
2019-05-30T14:56:06.932Z,101728.02
2019-05-30T14:58:36.486Z,101736.36
2019-05-30T15:01:07.111Z,101730.00
2019-05-30T15:03:36.758Z,101727.56
2019-05-30T15:06:08.810Z,101726.63
2019-05-30T15:08:37.626Z,101726.02
2019-05-30T15:11:07.485Z,101729.34
2019-05-30T15:13:37.186Z,101718.34
2019-05-30T15:16:06.795Z,101718.91
2019-05-30T15:18:36.245Z,101713.42
2019-05-30T15:21:06.271Z,101705.37
2019-05-30T15:23:35.781Z,101713.10
2019-05-30T15:26:05.979Z,101712.86
2019-05-30T15:28:35.494Z,101708.76
2019-05-30T15:31:06.649Z,101700.66
2019-05-30T15:33:36.348Z,101704.63
2019-05-30T15:36:06.567Z,101703.69
2019-05-30T15:38:36.081Z,101707.45
2019-05-30T15:41:06.883Z,101706.34
2019-05-30T15:43:36.540Z,101705.84
2019-05-30T15:46:06.040Z,101704.09
2019-05-30T15:48:35.557Z,101705.97
2019-05-30T15:51:05.489Z,101707.30
2019-05-30T15:53:35.068Z,101703.15
2019-05-30T15:56:04.712Z,101702.39
2019-05-30T15:58:34.231Z,101704.34
2019-05-30T16:01:03.855Z,101697.56
2019-05-30T16:03:33.420Z,101701.95
2019-05-30T16:06:03.066Z,101709.65
2019-05-30T16:08:32.555Z,101703.50
2019-05-30T16:11:02.101Z,101706.52
2019-05-30T16:13:31.725Z,101698.33
2019-05-30T16:16:01.323Z,101697.98
2019-05-30T16:18:30.884Z,101701.23
2019-05-30T16:21:00.389Z,101701.76
2019-05-30T16:23:29.901Z,101703.77
2019-05-30T16:25:59.426Z,101705.41
2019-05-30T16:28:28.930Z,101705.98
2019-05-30T16:30:58.466Z,101701.47
2019-05-30T16:33:28.039Z,101702.31
2019-05-30T16:35:57.548Z,101705.37
2019-05-30T16:38:27.054Z,101706.44
2019-05-30T16:40:56.557Z,101707.73
2019-05-30T16:43:26.594Z,101710.38
2019-05-30T16:45:56.165Z,101712.17
2019-05-30T16:48:26.723Z,101710.14
2019-05-30T16:50:56.318Z,101705.09
2019-05-30T16:53:25.993Z,101706.02
2019-05-30T16:55:55.569Z,101700.86
2019-05-30T16:58:25.847Z,101698.78
2019-05-30T17:00:55.402Z,101698.89
2019-05-30T17:03:26.100Z,101701.33
2019-05-30T17:05:55.762Z,101703.14
2019-05-30T17:08:26.267Z,101702.23
2019-05-30T17:10:55.819Z,101704.21
2019-05-30T17:13:25.873Z,101691.31
2019-05-30T17:15:55.464Z,101690.77
2019-05-30T17:18:26.194Z,101695.12
2019-05-30T17:20:56.861Z,101691.80
2019-05-30T17:23:26.977Z,101695.95
2019-05-30T17:25:56.501Z,101690.85
2019-05-30T17:28:26.429Z,101691.80
2019-05-30T17:30:56.016Z,101689.71
2019-05-30T17:33:26.615Z,101682.11
2019-05-30T17:35:56.192Z,101688.20
2019-05-30T17:38:26.535Z,101689.11
2019-05-30T17:40:56.170Z,101689.38
2019-05-30T17:43:25.676Z,101686.84
2019-05-30T17:45:55.271Z,101691.41
2019-05-30T17:48:25.677Z,101692.62
2019-05-30T17:50:55.264Z,101685.13
2019-05-30T17:53:25.815Z,101682.91
2019-05-30T17:55:55.451Z,101690.03
2019-05-30T17:58:25.970Z,101686.64
2019-05-30T18:00:57.148Z,101690.57
2019-05-30T18:03:26.872Z,101692.58
2019-05-30T18:05:56.373Z,101698.05
2019-05-30T18:08:26.852Z,101688.55
2019-05-30T18:10:56.464Z,101688.55
2019-05-30T18:13:27.017Z,101690.20
2019-05-30T18:15:56.725Z,101692.06
2019-05-30T18:18:27.292Z,101695.95
2019-05-30T18:20:56.906Z,101691.56
2019-05-30T18:23:27.507Z,101695.70
2019-05-30T18:25:57.158Z,101690.16
2019-05-30T18:28:27.730Z,101694.73
2019-05-30T18:30:57.335Z,101695.20
2019-05-30T18:33:28.234Z,101688.47
2019-05-30T18:35:57.872Z,101690.70
2019-05-30T18:38:28.425Z,101696.78
2019-05-30T18:41:10.784Z,101695.98
2019-05-30T18:43:29.265Z,101691.75
2019-05-30T18:45:58.884Z,101692.62
2019-05-30T18:48:29.279Z,101693.39
2019-05-30T18:50:58.858Z,101695.95
2019-05-30T18:53:28.437Z,101706.08
2019-05-30T18:55:57.916Z,101707.85
2019-05-30T18:58:27.503Z,101698.37
2019-05-30T19:00:57.037Z,101698.91
2019-05-30T19:03:28.519Z,101702.45
2019-05-30T19:05:58.136Z,101701.70
2019-05-30T19:08:27.900Z,101707.98
2019-05-30T19:10:57.463Z,101710.27
2019-05-30T19:13:27.106Z,101707.30
2019-05-30T19:15:56.628Z,101713.88
2019-05-30T19:18:27.226Z,101717.80
2019-05-30T19:20:56.829Z,101722.22
2019-05-30T19:23:26.307Z,101720.01
2019-05-30T19:25:55.877Z,101720.91
2019-05-30T19:28:26.405Z,101726.59
2019-05-30T19:30:56.003Z,101729.23
2019-05-30T19:33:26.657Z,101733.19
2019-05-30T19:35:56.262Z,101731.87
2019-05-30T19:38:27.114Z,101738.47
2019-05-30T19:40:56.842Z,101741.16
2019-05-30T19:43:27.497Z,101746.00
2019-05-30T19:45:57.119Z,101752.98
2019-05-30T19:48:26.656Z,101759.16
2019-05-30T19:50:56.166Z,101758.72
2019-05-30T19:53:25.818Z,101763.59
2019-05-30T19:55:55.392Z,101758.37
2019-05-30T19:58:24.909Z,101760.11
2019-05-30T20:00:58.929Z,101758.81
2019-05-30T20:03:36.528Z,101753.57
2019-05-30T20:05:57.074Z,101762.42
2019-05-30T20:08:26.603Z,101755.85
2019-05-30T20:10:56.132Z,101762.41
2019-05-30T20:13:25.641Z,101766.40
2019-05-30T20:15:55.147Z,101764.64
2019-05-30T20:18:24.727Z,101764.68
2019-05-30T20:20:57.916Z,101769.03
2019-05-30T20:23:25.608Z,101765.56
2019-05-30T20:25:55.232Z,101769.93
2019-05-30T20:28:24.855Z,101764.67
2019-05-30T20:30:54.450Z,101770.81
2019-05-30T20:33:24.008Z,101776.53
2019-05-30T20:35:53.634Z,101777.82
2019-05-30T20:38:23.117Z,101774.33
2019-05-30T20:40:52.604Z,101776.93
2019-05-30T20:43:22.154Z,101774.73
2019-05-30T20:45:51.703Z,101778.69
2019-05-30T20:48:21.212Z,101776.51
2019-05-30T20:50:50.719Z,101779.13
2019-05-30T20:53:20.608Z,101782.61
2019-05-30T20:55:50.274Z,101791.36
2019-05-30T20:58:19.743Z,101790.94
2019-05-30T21:00:49.344Z,101794.44
2019-05-30T21:03:19.099Z,101803.17
2019-05-30T21:05:48.876Z,101805.36
2019-05-30T21:08:18.356Z,101807.05
2019-05-30T21:10:49.357Z,101809.61
2019-05-30T21:13:19.716Z,101803.86
2019-05-30T21:15:49.955Z,101807.81
2019-05-30T21:18:19.718Z,101812.56
2019-05-30T21:20:49.286Z,101814.81
2019-05-30T21:23:18.812Z,101815.70
2019-05-30T21:25:48.314Z,101817.02
2019-05-30T21:28:17.841Z,101813.97
2019-05-30T21:30:47.576Z,101811.36
2019-05-30T21:33:17.507Z,101815.77
2019-05-30T21:35:48.115Z,101824.95
2019-05-30T21:38:17.692Z,101822.69
2019-05-30T21:40:48.397Z,101828.36
2019-05-30T21:43:18.287Z,101820.42
2019-05-30T21:45:48.957Z,101825.25
2019-05-30T21:48:18.669Z,101823.51
2019-05-30T21:50:49.163Z,101830.52
2019-05-30T21:53:19.384Z,101829.63
2019-05-30T21:55:50.089Z,101831.80
2019-05-30T21:58:19.759Z,101830.44
2019-05-30T22:01:09.944Z,101831.31
2019-05-30T22:03:40.779Z,101833.97
2019-05-30T22:06:10.380Z,101833.06
2019-05-30T22:08:41.031Z,101830.84
2019-05-30T22:11:10.712Z,101832.12
2019-05-30T22:13:41.415Z,101831.64
2019-05-30T22:16:10.945Z,101834.31
2019-05-30T22:18:41.866Z,101834.27
2019-05-30T22:21:11.466Z,101839.08
2019-05-30T22:23:42.095Z,101831.59
2019-05-30T22:26:11.633Z,101837.30
2019-05-30T22:28:42.271Z,101829.30
2019-05-30T22:31:11.804Z,101834.05
2019-05-30T22:33:42.546Z,101829.18
2019-05-30T22:36:12.161Z,101831.45
2019-05-30T22:38:42.734Z,101827.90
2019-05-30T22:41:12.262Z,101826.13
2019-05-30T22:43:41.844Z,101829.62
2019-05-30T22:46:11.352Z,101824.78
2019-05-30T22:48:40.911Z,101827.38
2019-05-30T22:51:10.508Z,101825.63
2019-05-30T22:53:40.018Z,101822.97
2019-05-30T22:56:09.509Z,101822.12
2019-05-30T22:58:39.025Z,101824.28
2019-05-30T23:01:08.591Z,101822.94
2019-05-30T23:03:38.107Z,101819.82
2019-05-30T23:06:07.735Z,101821.03
2019-05-30T23:08:37.325Z,101814.91
2019-05-30T23:11:06.873Z,101815.75
2019-05-30T23:13:40.668Z,101817.87
2019-05-30T23:16:07.623Z,101818.38
2019-05-30T23:18:37.181Z,101812.59
2019-05-30T23:21:06.764Z,101816.48
2019-05-30T23:23:36.254Z,101806.87
2019-05-30T23:26:05.838Z,101811.20
2019-05-30T23:28:35.378Z,101808.52
2019-05-30T23:31:05.021Z,101808.47
2019-05-30T23:33:34.608Z,101809.63
2019-05-30T23:36:04.180Z,101811.33
2019-05-30T23:38:33.704Z,101814.44
2019-05-30T23:41:03.332Z,101811.33
2019-05-30T23:43:32.850Z,101809.19
2019-05-30T23:46:02.342Z,101814.42
2019-05-30T23:48:31.861Z,101808.31
2019-05-30T23:51:01.344Z,101802.08
2019-05-30T23:53:30.832Z,101802.87
2019-05-30T23:56:00.657Z,101798.39
2019-05-30T23:58:30.304Z,101797.86
